McClure, Pennsylvania
Current Conditions -  °F | °C
As of 3:53 PM on Friday 24 Oct 2014 (Local Time) from KSEG Reporting Station
Clear Clear  
Wind Chill: 68°   Ceiling: Unl
Heat Index: 68°   Visibility: 10mi
Dew Point: 31°   Wind: 6mph
Humidity: 25%   Direction: 290°WNW
Pressure: 29.86"   Gusts: 17mph
Location:  40.71°N, 77.31°W
Report Text: KSEG 241953Z AUTO 29005G15KT 10SM CLR 20/M01 A2986 RMK AO2 SLP111 T02001006
Loading
Personal Weather Stations






























Interactive Weather Map New forecast layout! Learn more

10-Day Weather Forecast

Advertisements
Track Severe Weather on mobile